sensor_id;sensor_type;location;lat;lon;timestamp;P1;durP1;ratioP1;P2;durP2;ratioP2
26908;SDS011;14477;51.038;4.588;2023-04-24T00:00:16;10.55;;;5.80;;
26908;SDS011;14477;51.038;4.588;2023-04-24T00:02:43;11.27;;;6.30;;
26908;SDS011;14477;51.038;4.588;2023-04-24T00:05:16;9.35;;;5.50;;
26908;SDS011;14477;51.038;4.588;2023-04-24T00:07:42;10.33;;;5.33;;
26908;SDS011;14477;51.038;4.588;2023-04-24T00:10:10;10.40;;;5.88;;
26908;SDS011;14477;51.038;4.588;2023-04-24T00:12:37;12.93;;;6.80;;
26908;SDS011;14477;51.038;4.588;2023-04-24T00:15:03;9.20;;;5.50;;
26908;SDS011;14477;51.038;4.588;2023-04-24T00:17:30;13.07;;;6.20;;
26908;SDS011;14477;51.038;4.588;2023-04-24T00:19:56;8.30;;;5.47;;
26908;SDS011;14477;51.038;4.588;2023-04-24T00:22:27;10.18;;;5.78;;
26908;SDS011;14477;51.038;4.588;2023-04-24T00:24:53;10.57;;;5.72;;
26908;SDS011;14477;51.038;4.588;2023-04-24T00:27:19;13.20;;;6.25;;
26908;SDS011;14477;51.038;4.588;2023-04-24T00:29:45;10.63;;;5.70;;
26908;SDS011;14477;51.038;4.588;2023-04-24T00:32:11;10.55;;;6.30;;
26908;SDS011;14477;51.038;4.588;2023-04-24T00:34:37;9.60;;;5.75;;
26908;SDS011;14477;51.038;4.588;2023-04-24T00:37:03;11.37;;;6.40;;
26908;SDS011;14477;51.038;4.588;2023-04-24T00:39:29;8.80;;;5.35;;
26908;SDS011;14477;51.038;4.588;2023-04-24T00:41:54;8.20;;;5.27;;
26908;SDS011;14477;51.038;4.588;2023-04-24T00:44:21;10.38;;;5.70;;
26908;SDS011;14477;51.038;4.588;2023-04-24T00:46:48;11.75;;;5.60;;
26908;SDS011;14477;51.038;4.588;2023-04-24T00:49:20;10.52;;;6.07;;
26908;SDS011;14477;51.038;4.588;2023-04-24T00:51:47;10.87;;;6.03;;
26908;SDS011;14477;51.038;4.588;2023-04-24T00:54:14;8.88;;;5.10;;
26908;SDS011;14477;51.038;4.588;2023-04-24T00:56:41;8.30;;;5.47;;
26908;SDS011;14477;51.038;4.588;2023-04-24T00:59:07;10.13;;;5.93;;
26908;SDS011;14477;51.038;4.588;2023-04-24T01:01:33;11.70;;;6.05;;
26908;SDS011;14477;51.038;4.588;2023-04-24T01:03:59;8.73;;;5.43;;
26908;SDS011;14477;51.038;4.588;2023-04-24T01:06:27;10.23;;;5.53;;
26908;SDS011;14477;51.038;4.588;2023-04-24T01:08:56;11.75;;;6.60;;
26908;SDS011;14477;51.038;4.588;2023-04-24T01:11:22;8.48;;;5.38;;
26908;SDS011;14477;51.038;4.588;2023-04-24T01:13:48;11.23;;;6.30;;
26908;SDS011;14477;51.038;4.588;2023-04-24T01:16:14;9.98;;;6.05;;
26908;SDS011;14477;51.038;4.588;2023-04-24T01:18:42;9.77;;;5.22;;
26908;SDS011;14477;51.038;4.588;2023-04-24T01:21:08;11.20;;;5.88;;
26908;SDS011;14477;51.038;4.588;2023-04-24T01:23:37;10.43;;;5.57;;
26908;SDS011;14477;51.038;4.588;2023-04-24T01:26:03;8.35;;;5.03;;
26908;SDS011;14477;51.038;4.588;2023-04-24T01:28:29;8.70;;;5.65;;
26908;SDS011;14477;51.038;4.588;2023-04-24T01:30:55;10.32;;;5.18;;
26908;SDS011;14477;51.038;4.588;2023-04-24T01:33:21;8.40;;;5.20;;
26908;SDS011;14477;51.038;4.588;2023-04-24T01:35:48;10.52;;;5.55;;
26908;SDS011;14477;51.038;4.588;2023-04-24T01:38:14;10.50;;;6.43;;
26908;SDS011;14477;51.038;4.588;2023-04-24T01:40:40;11.88;;;6.90;;
26908;SDS011;14477;51.038;4.588;2023-04-24T01:43:06;8.97;;;5.47;;
26908;SDS011;14477;51.038;4.588;2023-04-24T01:45:32;9.73;;;5.93;;
26908;SDS011;14477;51.038;4.588;2023-04-24T01:47:58;12.15;;;6.20;;
26908;SDS011;14477;51.038;4.588;2023-04-24T01:50:25;8.30;;;5.37;;
26908;SDS011;14477;51.038;4.588;2023-04-24T01:52:51;10.45;;;6.20;;
26908;SDS011;14477;51.038;4.588;2023-04-24T01:55:17;10.57;;;5.50;;
26908;SDS011;14477;51.038;4.588;2023-04-24T01:57:43;10.73;;;5.70;;
26908;SDS011;14477;51.038;4.588;2023-04-24T02:00:09;9.17;;;5.57;;
26908;SDS011;14477;51.038;4.588;2023-04-24T02:02:36;8.93;;;5.63;;
26908;SDS011;14477;51.038;4.588;2023-04-24T02:05:05;9.48;;;5.45;;
26908;SDS011;14477;51.038;4.588;2023-04-24T02:07:32;8.90;;;5.33;;
26908;SDS011;14477;51.038;4.588;2023-04-24T02:09:58;10.10;;;5.90;;
26908;SDS011;14477;51.038;4.588;2023-04-24T02:12:24;9.30;;;5.40;;
26908;SDS011;14477;51.038;4.588;2023-04-24T02:14:49;9.97;;;5.33;;
26908;SDS011;14477;51.038;4.588;2023-04-24T02:17:16;10.32;;;5.63;;
26908;SDS011;14477;51.038;4.588;2023-04-24T02:19:44;9.35;;;5.22;;
26908;SDS011;14477;51.038;4.588;2023-04-24T02:22:10;8.07;;;4.50;;
26908;SDS011;14477;51.038;4.588;2023-04-24T02:24:36;7.35;;;4.25;;
26908;SDS011;14477;51.038;4.588;2023-04-24T02:27:02;8.45;;;5.10;;
26908;SDS011;14477;51.038;4.588;2023-04-24T02:29:28;7.67;;;4.30;;
26908;SDS011;14477;51.038;4.588;2023-04-24T02:31:54;7.38;;;4.22;;
26908;SDS011;14477;51.038;4.588;2023-04-24T02:34:19;8.63;;;4.80;;
26908;SDS011;14477;51.038;4.588;2023-04-24T02:36:45;6.85;;;4.05;;
26908;SDS011;14477;51.038;4.588;2023-04-24T02:39:11;6.80;;;4.13;;
26908;SDS011;14477;51.038;4.588;2023-04-24T02:41:36;7.55;;;4.05;;
26908;SDS011;14477;51.038;4.588;2023-04-24T02:44:02;6.03;;;3.63;;
26908;SDS011;14477;51.038;4.588;2023-04-24T02:46:28;6.50;;;4.20;;
26908;SDS011;14477;51.038;4.588;2023-04-24T02:48:54;6.95;;;4.03;;
26908;SDS011;14477;51.038;4.588;2023-04-24T02:51:20;6.97;;;4.00;;
26908;SDS011;14477;51.038;4.588;2023-04-24T02:53:46;6.85;;;3.67;;
26908;SDS011;14477;51.038;4.588;2023-04-24T02:56:12;4.87;;;3.43;;
26908;SDS011;14477;51.038;4.588;2023-04-24T02:58:38;7.53;;;4.15;;
26908;SDS011;14477;51.038;4.588;2023-04-24T03:01:04;6.80;;;3.80;;
26908;SDS011;14477;51.038;4.588;2023-04-24T03:03:30;9.53;;;4.37;;
26908;SDS011;14477;51.038;4.588;2023-04-24T03:05:55;5.90;;;3.70;;
26908;SDS011;14477;51.038;4.588;2023-04-24T03:08:22;7.80;;;4.00;;
26908;SDS011;14477;51.038;4.588;2023-04-24T03:10:48;6.40;;;3.90;;
26908;SDS011;14477;51.038;4.588;2023-04-24T03:13:15;6.93;;;4.30;;
26908;SDS011;14477;51.038;4.588;2023-04-24T03:15:41;7.43;;;4.53;;
26908;SDS011;14477;51.038;4.588;2023-04-24T03:18:07;8.32;;;4.53;;
26908;SDS011;14477;51.038;4.588;2023-04-24T03:20:32;7.17;;;4.00;;
26908;SDS011;14477;51.038;4.588;2023-04-24T03:22:58;9.27;;;4.20;;
26908;SDS011;14477;51.038;4.588;2023-04-24T03:25:24;8.57;;;4.53;;
26908;SDS011;14477;51.038;4.588;2023-04-24T03:27:50;6.78;;;4.00;;
26908;SDS011;14477;51.038;4.588;2023-04-24T03:30:16;7.10;;;4.57;;
26908;SDS011;14477;51.038;4.588;2023-04-24T03:32:42;7.88;;;4.47;;
26908;SDS011;14477;51.038;4.588;2023-04-24T03:35:08;9.13;;;4.63;;
26908;SDS011;14477;51.038;4.588;2023-04-24T03:37:35;6.60;;;3.97;;
26908;SDS011;14477;51.038;4.588;2023-04-24T03:40:01;8.15;;;4.10;;
26908;SDS011;14477;51.038;4.588;2023-04-24T03:42:27;7.23;;;3.93;;
26908;SDS011;14477;51.038;4.588;2023-04-24T03:44:53;5.90;;;3.55;;
26908;SDS011;14477;51.038;4.588;2023-04-24T03:47:19;5.43;;;3.17;;
26908;SDS011;14477;51.038;4.588;2023-04-24T03:49:44;7.22;;;3.50;;
26908;SDS011;14477;51.038;4.588;2023-04-24T03:52:10;5.23;;;3.07;;
26908;SDS011;14477;51.038;4.588;2023-04-24T03:54:36;4.80;;;2.80;;
26908;SDS011;14477;51.038;4.588;2023-04-24T03:57:02;5.47;;;3.05;;
26908;SDS011;14477;51.038;4.588;2023-04-24T03:59:30;4.10;;;2.77;;
26908;SDS011;14477;51.038;4.588;2023-04-24T04:01:55;5.30;;;2.90;;
26908;SDS011;14477;51.038;4.588;2023-04-24T04:04:21;6.05;;;3.10;;
26908;SDS011;14477;51.038;4.588;2023-04-24T04:06:47;4.73;;;2.90;;
26908;SDS011;14477;51.038;4.588;2023-04-24T04:09:14;4.18;;;2.78;;
26908;SDS011;14477;51.038;4.588;2023-04-24T04:11:40;4.10;;;2.83;;
26908;SDS011;14477;51.038;4.588;2023-04-24T04:14:06;3.70;;;2.58;;
26908;SDS011;14477;51.038;4.588;2023-04-24T04:16:32;3.30;;;2.37;;
26908;SDS011;14477;51.038;4.588;2023-04-24T04:18:58;3.60;;;2.42;;
26908;SDS011;14477;51.038;4.588;2023-04-24T04:21:24;4.57;;;2.25;;
26908;SDS011;14477;51.038;4.588;2023-04-24T04:23:50;4.00;;;2.30;;
26908;SDS011;14477;51.038;4.588;2023-04-24T04:26:15;3.80;;;2.37;;
26908;SDS011;14477;51.038;4.588;2023-04-24T04:28:44;3.38;;;2.20;;
26908;SDS011;14477;51.038;4.588;2023-04-24T04:31:10;3.40;;;2.27;;
26908;SDS011;14477;51.038;4.588;2023-04-24T04:33:35;4.00;;;2.00;;
26908;SDS011;14477;51.038;4.588;2023-04-24T04:36:03;3.72;;;2.00;;
26908;SDS011;14477;51.038;4.588;2023-04-24T04:38:29;2.83;;;1.70;;
26908;SDS011;14477;51.038;4.588;2023-04-24T04:40:55;2.95;;;1.83;;
26908;SDS011;14477;51.038;4.588;2023-04-24T04:43:22;2.80;;;1.67;;
26908;SDS011;14477;51.038;4.588;2023-04-24T04:45:54;3.08;;;1.60;;
26908;SDS011;14477;51.038;4.588;2023-04-24T04:48:21;2.70;;;1.60;;
26908;SDS011;14477;51.038;4.588;2023-04-24T04:50:47;3.30;;;1.80;;
26908;SDS011;14477;51.038;4.588;2023-04-24T04:53:13;3.67;;;2.05;;
26908;SDS011;14477;51.038;4.588;2023-04-24T04:55:38;3.90;;;2.00;;
26908;SDS011;14477;51.038;4.588;2023-04-24T04:58:04;3.85;;;2.25;;
26908;SDS011;14477;51.038;4.588;2023-04-24T05:00:31;3.88;;;2.28;;
26908;SDS011;14477;51.038;4.588;2023-04-24T05:03:00;4.43;;;2.60;;
26908;SDS011;14477;51.038;4.588;2023-04-24T05:05:26;6.72;;;3.45;;
26908;SDS011;14477;51.038;4.588;2023-04-24T05:07:52;4.00;;;2.67;;
26908;SDS011;14477;51.038;4.588;2023-04-24T05:10:18;5.17;;;2.70;;
26908;SDS011;14477;51.038;4.588;2023-04-24T05:12:44;4.70;;;2.83;;
26908;SDS011;14477;51.038;4.588;2023-04-24T05:15:10;4.45;;;2.65;;
26908;SDS011;14477;51.038;4.588;2023-04-24T05:17:36;5.82;;;2.63;;
26908;SDS011;14477;51.038;4.588;2023-04-24T05:20:02;4.20;;;2.50;;
26908;SDS011;14477;51.038;4.588;2023-04-24T05:22:31;4.80;;;2.55;;
26908;SDS011;14477;51.038;4.588;2023-04-24T05:24:57;4.43;;;2.83;;
26908;SDS011;14477;51.038;4.588;2023-04-24T05:27:25;5.70;;;3.10;;
26908;SDS011;14477;51.038;4.588;2023-04-24T05:29:50;6.27;;;3.37;;
26908;SDS011;14477;51.038;4.588;2023-04-24T05:32:16;5.70;;;3.30;;
26908;SDS011;14477;51.038;4.588;2023-04-24T05:34:42;7.63;;;3.60;;
26908;SDS011;14477;51.038;4.588;2023-04-24T05:37:08;7.20;;;3.20;;
26908;SDS011;14477;51.038;4.588;2023-04-24T05:39:35;6.95;;;3.55;;
26908;SDS011;14477;51.038;4.588;2023-04-24T05:42:01;5.45;;;3.22;;
26908;SDS011;14477;51.038;4.588;2023-04-24T05:44:28;7.13;;;3.23;;
26908;SDS011;14477;51.038;4.588;2023-04-24T05:46:54;6.40;;;3.40;;
26908;SDS011;14477;51.038;4.588;2023-04-24T05:49:21;7.00;;;3.30;;
26908;SDS011;14477;51.038;4.588;2023-04-24T05:51:47;8.38;;;3.80;;
26908;SDS011;14477;51.038;4.588;2023-04-24T05:54:12;7.73;;;3.40;;
26908;SDS011;14477;51.038;4.588;2023-04-24T05:56:39;6.78;;;3.50;;
26908;SDS011;14477;51.038;4.588;2023-04-24T05:59:05;6.47;;;3.20;;
26908;SDS011;14477;51.038;4.588;2023-04-24T06:01:31;5.57;;;3.33;;
26908;SDS011;14477;51.038;4.588;2023-04-24T06:03:57;6.73;;;3.50;;
26908;SDS011;14477;51.038;4.588;2023-04-24T06:06:23;6.93;;;3.50;;
26908;SDS011;14477;51.038;4.588;2023-04-24T06:08:49;9.55;;;4.70;;
26908;SDS011;14477;51.038;4.588;2023-04-24T06:11:15;7.50;;;3.87;;
26908;SDS011;14477;51.038;4.588;2023-04-24T06:13:41;8.65;;;3.60;;
26908;SDS011;14477;51.038;4.588;2023-04-24T06:16:07;7.80;;;3.83;;
26908;SDS011;14477;51.038;4.588;2023-04-24T06:18:33;7.45;;;3.80;;
26908;SDS011;14477;51.038;4.588;2023-04-24T06:20:58;8.43;;;3.78;;
26908;SDS011;14477;51.038;4.588;2023-04-24T06:23:24;8.27;;;3.90;;
26908;SDS011;14477;51.038;4.588;2023-04-24T06:25:50;6.28;;;3.83;;
26908;SDS011;14477;51.038;4.588;2023-04-24T06:28:16;7.22;;;4.18;;
26908;SDS011;14477;51.038;4.588;2023-04-24T06:30:42;8.03;;;3.80;;
26908;SDS011;14477;51.038;4.588;2023-04-24T06:33:08;6.10;;;3.83;;
26908;SDS011;14477;51.038;4.588;2023-04-24T06:35:34;6.40;;;3.45;;
26908;SDS011;14477;51.038;4.588;2023-04-24T06:38:00;6.63;;;3.70;;
26908;SDS011;14477;51.038;4.588;2023-04-24T06:40:26;6.53;;;3.90;;
26908;SDS011;14477;51.038;4.588;2023-04-24T06:42:52;6.00;;;3.73;;
26908;SDS011;14477;51.038;4.588;2023-04-24T06:45:18;9.38;;;4.72;;
26908;SDS011;14477;51.038;4.588;2023-04-24T06:47:43;9.15;;;5.07;;
26908;SDS011;14477;51.038;4.588;2023-04-24T06:50:09;8.37;;;4.70;;
26908;SDS011;14477;51.038;4.588;2023-04-24T06:52:36;8.57;;;4.53;;
26908;SDS011;14477;51.038;4.588;2023-04-24T06:55:02;7.33;;;4.37;;
26908;SDS011;14477;51.038;4.588;2023-04-24T06:57:28;11.40;;;5.40;;
26908;SDS011;14477;51.038;4.588;2023-04-24T06:59:54;8.27;;;4.70;;
26908;SDS011;14477;51.038;4.588;2023-04-24T07:02:20;7.28;;;4.28;;
26908;SDS011;14477;51.038;4.588;2023-04-24T07:04:46;7.57;;;4.35;;
26908;SDS011;14477;51.038;4.588;2023-04-24T07:07:15;7.93;;;4.20;;
26908;SDS011;14477;51.038;4.588;2023-04-24T07:09:41;8.60;;;4.30;;
26908;SDS011;14477;51.038;4.588;2023-04-24T07:12:10;8.18;;;4.47;;
26908;SDS011;14477;51.038;4.588;2023-04-24T07:14:37;7.55;;;4.18;;
26908;SDS011;14477;51.038;4.588;2023-04-24T07:17:03;7.78;;;4.20;;
26908;SDS011;14477;51.038;4.588;2023-04-24T07:19:30;8.07;;;4.20;;
26908;SDS011;14477;51.038;4.588;2023-04-24T07:21:56;6.03;;;3.42;;
26908;SDS011;14477;51.038;4.588;2023-04-24T07:24:24;7.00;;;3.95;;
26908;SDS011;14477;51.038;4.588;2023-04-24T07:26:50;7.15;;;3.10;;
26908;SDS011;14477;51.038;4.588;2023-04-24T07:29:17;6.67;;;3.10;;
26908;SDS011;14477;51.038;4.588;2023-04-24T07:31:43;5.38;;;2.47;;
26908;SDS011;14477;51.038;4.588;2023-04-24T07:34:09;7.05;;;2.92;;
26908;SDS011;14477;51.038;4.588;2023-04-24T07:36:34;7.03;;;2.80;;
26908;SDS011;14477;51.038;4.588;2023-04-24T07:39:01;6.72;;;2.83;;
26908;SDS011;14477;51.038;4.588;2023-04-24T07:41:26;5.97;;;2.47;;
26908;SDS011;14477;51.038;4.588;2023-04-24T07:43:53;4.43;;;2.33;;
26908;SDS011;14477;51.038;4.588;2023-04-24T07:46:19;4.83;;;2.20;;
26908;SDS011;14477;51.038;4.588;2023-04-24T07:48:45;4.35;;;2.10;;
26908;SDS011;14477;51.038;4.588;2023-04-24T07:51:13;3.10;;;1.95;;
26908;SDS011;14477;51.038;4.588;2023-04-24T07:53:41;3.70;;;1.70;;
26908;SDS011;14477;51.038;4.588;2023-04-24T07:56:08;3.38;;;1.95;;
26908;SDS011;14477;51.038;4.588;2023-04-24T07:58:34;4.20;;;2.00;;
26908;SDS011;14477;51.038;4.588;2023-04-24T08:01:00;3.60;;;2.00;;
26908;SDS011;14477;51.038;4.588;2023-04-24T08:03:26;3.85;;;1.70;;
26908;SDS011;14477;51.038;4.588;2023-04-24T08:05:51;3.20;;;1.80;;
26908;SDS011;14477;51.038;4.588;2023-04-24T08:08:18;3.33;;;1.85;;
26908;SDS011;14477;51.038;4.588;2023-04-24T08:10:46;4.10;;;1.90;;
26908;SDS011;14477;51.038;4.588;2023-04-24T08:13:12;6.73;;;1.83;;
26908;SDS011;14477;51.038;4.588;2023-04-24T08:15:38;6.38;;;2.30;;
26908;SDS011;14477;51.038;4.588;2023-04-24T08:18:04;5.93;;;2.03;;
26908;SDS011;14477;51.038;4.588;2023-04-24T08:20:30;3.90;;;1.93;;
26908;SDS011;14477;51.038;4.588;2023-04-24T08:22:56;5.82;;;2.35;;
26908;SDS011;14477;51.038;4.588;2023-04-24T08:25:21;5.80;;;2.60;;
26908;SDS011;14477;51.038;4.588;2023-04-24T08:27:48;6.53;;;2.80;;
26908;SDS011;14477;51.038;4.588;2023-04-24T08:30:14;6.03;;;3.08;;
26908;SDS011;14477;51.038;4.588;2023-04-24T08:32:40;6.97;;;3.03;;
26908;SDS011;14477;51.038;4.588;2023-04-24T08:35:06;7.05;;;3.72;;
26908;SDS011;14477;51.038;4.588;2023-04-24T08:37:34;7.55;;;3.13;;
26908;SDS011;14477;51.038;4.588;2023-04-24T08:40:01;6.88;;;3.55;;
26908;SDS011;14477;51.038;4.588;2023-04-24T08:42:31;7.30;;;4.00;;
26908;SDS011;14477;51.038;4.588;2023-04-24T08:44:58;7.43;;;3.90;;
26908;SDS011;14477;51.038;4.588;2023-04-24T08:47:24;9.27;;;4.00;;
26908;SDS011;14477;51.038;4.588;2023-04-24T08:49:51;7.40;;;3.55;;
26908;SDS011;14477;51.038;4.588;2023-04-24T08:52:19;7.60;;;3.40;;
26908;SDS011;14477;51.038;4.588;2023-04-24T08:54:47;6.32;;;3.17;;
26908;SDS011;14477;51.038;4.588;2023-04-24T08:57:14;8.80;;;3.83;;
26908;SDS011;14477;51.038;4.588;2023-04-24T08:59:40;7.60;;;4.20;;
26908;SDS011;14477;51.038;4.588;2023-04-24T09:02:09;7.18;;;3.60;;
26908;SDS011;14477;51.038;4.588;2023-04-24T09:04:36;7.30;;;3.38;;
26908;SDS011;14477;51.038;4.588;2023-04-24T09:07:03;8.35;;;3.95;;
26908;SDS011;14477;51.038;4.588;2023-04-24T09:09:31;9.53;;;4.00;;
26908;SDS011;14477;51.038;4.588;2023-04-24T09:11:58;7.63;;;3.70;;
26908;SDS011;14477;51.038;4.588;2023-04-24T09:14:24;7.05;;;3.45;;
26908;SDS011;14477;51.038;4.588;2023-04-24T09:16:50;7.47;;;3.65;;
26908;SDS011;14477;51.038;4.588;2023-04-24T09:19:16;6.97;;;3.30;;
26908;SDS011;14477;51.038;4.588;2023-04-24T09:21:45;6.28;;;3.05;;
26908;SDS011;14477;51.038;4.588;2023-04-24T09:24:15;6.47;;;3.42;;
26908;SDS011;14477;51.038;4.588;2023-04-24T09:26:43;7.97;;;3.83;;
26908;SDS011;14477;51.038;4.588;2023-04-24T09:29:13;7.15;;;3.67;;
26908;SDS011;14477;51.038;4.588;2023-04-24T09:31:41;6.27;;;3.47;;
26908;SDS011;14477;51.038;4.588;2023-04-24T09:34:07;8.10;;;3.85;;
26908;SDS011;14477;51.038;4.588;2023-04-24T09:36:34;7.53;;;3.78;;
26908;SDS011;14477;51.038;4.588;2023-04-24T09:39:03;8.23;;;4.13;;
26908;SDS011;14477;51.038;4.588;2023-04-24T09:44:26;8.82;;;4.45;;
26908;SDS011;14477;51.038;4.588;2023-04-24T09:46:58;6.55;;;4.03;;
26908;SDS011;14477;51.038;4.588;2023-04-24T09:49:28;7.93;;;3.90;;
26908;SDS011;14477;51.038;4.588;2023-04-24T09:52:02;5.97;;;3.38;;
26908;SDS011;14477;51.038;4.588;2023-04-24T09:54:35;7.53;;;3.20;;
26908;SDS011;14477;51.038;4.588;2023-04-24T09:57:02;6.38;;;3.15;;
26908;SDS011;14477;51.038;4.588;2023-04-24T09:59:28;6.00;;;3.30;;
26908;SDS011;14477;51.038;4.588;2023-04-24T10:01:54;6.40;;;3.28;;
26908;SDS011;14477;51.038;4.588;2023-04-24T10:04:25;5.97;;;3.50;;
26908;SDS011;14477;51.038;4.588;2023-04-24T10:06:53;5.60;;;3.50;;
26908;SDS011;14477;51.038;4.588;2023-04-24T10:09:21;5.40;;;3.05;;
26908;SDS011;14477;51.038;4.588;2023-04-24T10:11:49;4.93;;;2.92;;
26908;SDS011;14477;51.038;4.588;2023-04-24T10:14:19;5.93;;;3.10;;
26908;SDS011;14477;51.038;4.588;2023-04-24T10:16:47;5.95;;;3.03;;
26908;SDS011;14477;51.038;4.588;2023-04-24T10:19:14;6.13;;;3.30;;
26908;SDS011;14477;51.038;4.588;2023-04-24T10:21:41;6.78;;;3.40;;
26908;SDS011;14477;51.038;4.588;2023-04-24T10:24:12;6.88;;;3.53;;
26908;SDS011;14477;51.038;4.588;2023-04-24T10:26:41;7.45;;;3.55;;
26908;SDS011;14477;51.038;4.588;2023-04-24T10:29:10;7.05;;;3.40;;
26908;SDS011;14477;51.038;4.588;2023-04-24T10:31:38;6.43;;;3.00;;
26908;SDS011;14477;51.038;4.588;2023-04-24T10:34:05;5.03;;;2.65;;
26908;SDS011;14477;51.038;4.588;2023-04-24T10:36:32;4.63;;;2.53;;
26908;SDS011;14477;51.038;4.588;2023-04-24T10:39:01;4.35;;;2.30;;
26908;SDS011;14477;51.038;4.588;2023-04-24T10:41:29;4.20;;;2.30;;
26908;SDS011;14477;51.038;4.588;2023-04-24T10:46:37;3.75;;;2.00;;
26908;SDS011;14477;51.038;4.588;2023-04-24T10:49:05;4.57;;;1.95;;
26908;SDS011;14477;51.038;4.588;2023-04-24T10:51:51;5.28;;;2.22;;
26908;SDS011;14477;51.038;4.588;2023-04-24T10:59:43;3.97;;;2.30;;
26908;SDS011;14477;51.038;4.588;2023-04-24T11:02:09;9.18;;;2.60;;
26908;SDS011;14477;51.038;4.588;2023-04-24T11:04:35;5.95;;;2.70;;
26908;SDS011;14477;51.038;4.588;2023-04-24T11:07:04;5.40;;;2.50;;
26908;SDS011;14477;51.038;4.588;2023-04-24T11:09:30;5.13;;;2.60;;
26908;SDS011;14477;51.038;4.588;2023-04-24T11:12:07;4.47;;;2.78;;
26908;SDS011;14477;51.038;4.588;2023-04-24T11:17:32;5.55;;;2.70;;
26908;SDS011;14477;51.038;4.588;2023-04-24T11:20:05;4.57;;;2.67;;
26908;SDS011;14477;51.038;4.588;2023-04-24T11:22:42;3.72;;;2.38;;
26908;SDS011;14477;51.038;4.588;2023-04-24T11:25:08;4.47;;;2.45;;
26908;SDS011;14477;51.038;4.588;2023-04-24T11:27:43;3.90;;;2.40;;
26908;SDS011;14477;51.038;4.588;2023-04-24T11:30:11;9.63;;;2.50;;
26908;SDS011;14477;51.038;4.588;2023-04-24T11:32:38;4.93;;;2.42;;
26908;SDS011;14477;51.038;4.588;2023-04-24T11:37:47;4.55;;;2.58;;
26908;SDS011;14477;51.038;4.588;2023-04-24T11:40:15;5.13;;;2.63;;
26908;SDS011;14477;51.038;4.588;2023-04-24T11:42:42;5.63;;;3.17;;
26908;SDS011;14477;51.038;4.588;2023-04-24T11:45:22;5.50;;;3.22;;
26908;SDS011;14477;51.038;4.588;2023-04-24T11:47:49;6.53;;;3.42;;
26908;SDS011;14477;51.038;4.588;2023-04-24T11:50:16;6.35;;;3.40;;
26908;SDS011;14477;51.038;4.588;2023-04-24T11:52:43;6.53;;;3.47;;
26908;SDS011;14477;51.038;4.588;2023-04-24T11:57:45;5.38;;;3.25;;
26908;SDS011;14477;51.038;4.588;2023-04-24T12:02:45;4.72;;;3.03;;
26908;SDS011;14477;51.038;4.588;2023-04-24T12:05:25;5.60;;;3.70;;
26908;SDS011;14477;51.038;4.588;2023-04-24T12:07:52;6.88;;;2.92;;
26908;SDS011;14477;51.038;4.588;2023-04-24T12:10:22;5.07;;;2.70;;
26908;SDS011;14477;51.038;4.588;2023-04-24T12:12:52;5.28;;;2.88;;
26908;SDS011;14477;51.038;4.588;2023-04-24T12:15:19;5.20;;;2.73;;
26908;SDS011;14477;51.038;4.588;2023-04-24T12:17:45;5.32;;;3.15;;
26908;SDS011;14477;51.038;4.588;2023-04-24T12:20:12;4.93;;;3.10;;
26908;SDS011;14477;51.038;4.588;2023-04-24T12:22:53;7.00;;;3.42;;
26908;SDS011;14477;51.038;4.588;2023-04-24T12:25:21;5.93;;;3.20;;
26908;SDS011;14477;51.038;4.588;2023-04-24T12:27:52;5.10;;;2.90;;
26908;SDS011;14477;51.038;4.588;2023-04-24T12:30:43;5.32;;;3.03;;
26908;SDS011;14477;51.038;4.588;2023-04-24T12:33:16;4.93;;;2.90;;
26908;SDS011;14477;51.038;4.588;2023-04-24T12:35:43;5.65;;;3.00;;
26908;SDS011;14477;51.038;4.588;2023-04-24T12:38:10;4.73;;;3.00;;
26908;SDS011;14477;51.038;4.588;2023-04-24T12:40:39;4.40;;;2.50;;
26908;SDS011;14477;51.038;4.588;2023-04-24T12:43:17;4.97;;;2.72;;
26908;SDS011;14477;51.038;4.588;2023-04-24T12:45:43;4.47;;;2.60;;
26908;SDS011;14477;51.038;4.588;2023-04-24T12:48:10;4.85;;;2.70;;
26908;SDS011;14477;51.038;4.588;2023-04-24T12:50:36;5.30;;;2.47;;
26908;SDS011;14477;51.038;4.588;2023-04-24T12:53:06;4.88;;;2.40;;
26908;SDS011;14477;51.038;4.588;2023-04-24T12:55:33;3.85;;;2.10;;
26908;SDS011;14477;51.038;4.588;2023-04-24T12:57:59;3.45;;;2.25;;
26908;SDS011;14477;51.038;4.588;2023-04-24T13:00:25;4.35;;;1.90;;
26908;SDS011;14477;51.038;4.588;2023-04-24T13:02:51;3.03;;;1.90;;
26908;SDS011;14477;51.038;4.588;2023-04-24T13:05:17;4.32;;;2.03;;
26908;SDS011;14477;51.038;4.588;2023-04-24T13:07:43;4.47;;;2.07;;
26908;SDS011;14477;51.038;4.588;2023-04-24T13:10:08;4.10;;;1.90;;
26908;SDS011;14477;51.038;4.588;2023-04-24T13:12:35;3.35;;;1.70;;
26908;SDS011;14477;51.038;4.588;2023-04-24T13:15:02;3.20;;;2.37;;
26908;SDS011;14477;51.038;4.588;2023-04-24T13:17:29;4.28;;;2.60;;
26908;SDS011;14477;51.038;4.588;2023-04-24T13:19:55;4.07;;;2.67;;
26908;SDS011;14477;51.038;4.588;2023-04-24T13:22:21;4.10;;;2.80;;
26908;SDS011;14477;51.038;4.588;2023-04-24T13:24:47;4.70;;;2.80;;
26908;SDS011;14477;51.038;4.588;2023-04-24T13:27:16;4.22;;;2.70;;
26908;SDS011;14477;51.038;4.588;2023-04-24T13:29:42;4.30;;;2.92;;
26908;SDS011;14477;51.038;4.588;2023-04-24T13:32:08;3.00;;;2.40;;
26908;SDS011;14477;51.038;4.588;2023-04-24T13:34:34;3.23;;;2.30;;
26908;SDS011;14477;51.038;4.588;2023-04-24T13:37:00;2.60;;;1.92;;
26908;SDS011;14477;51.038;4.588;2023-04-24T13:39:27;2.25;;;1.60;;
26908;SDS011;14477;51.038;4.588;2023-04-24T13:41:53;4.17;;;2.07;;
26908;SDS011;14477;51.038;4.588;2023-04-24T13:44:19;4.10;;;2.15;;
26908;SDS011;14477;51.038;4.588;2023-04-24T13:46:46;4.53;;;2.30;;
26908;SDS011;14477;51.038;4.588;2023-04-24T13:49:13;3.00;;;2.10;;
26908;SDS011;14477;51.038;4.588;2023-04-24T13:51:40;3.20;;;2.07;;
26908;SDS011;14477;51.038;4.588;2023-04-24T13:54:06;3.70;;;2.10;;
26908;SDS011;14477;51.038;4.588;2023-04-24T13:56:32;2.40;;;2.20;;
26908;SDS011;14477;51.038;4.588;2023-04-24T13:58:58;3.43;;;2.60;;
26908;SDS011;14477;51.038;4.588;2023-04-24T14:01:24;3.33;;;2.50;;
26908;SDS011;14477;51.038;4.588;2023-04-24T14:03:50;3.70;;;2.50;;
26908;SDS011;14477;51.038;4.588;2023-04-24T14:06:17;4.78;;;2.65;;
26908;SDS011;14477;51.038;4.588;2023-04-24T14:08:43;3.17;;;2.57;;
26908;SDS011;14477;51.038;4.588;2023-04-24T14:11:09;3.30;;;2.60;;
26908;SDS011;14477;51.038;4.588;2023-04-24T14:13:36;3.38;;;2.90;;
26908;SDS011;14477;51.038;4.588;2023-04-24T14:16:03;3.45;;;3.10;;
26908;SDS011;14477;51.038;4.588;2023-04-24T14:18:29;3.17;;;2.87;;
26908;SDS011;14477;51.038;4.588;2023-04-24T14:20:55;3.28;;;2.63;;
26908;SDS011;14477;51.038;4.588;2023-04-24T14:23:21;4.00;;;2.90;;
26908;SDS011;14477;51.038;4.588;2023-04-24T14:25:50;3.03;;;2.40;;
26908;SDS011;14477;51.038;4.588;2023-04-24T14:28:20;3.40;;;2.20;;
26908;SDS011;14477;51.038;4.588;2023-04-24T14:30:46;2.72;;;1.60;;
26908;SDS011;14477;51.038;4.588;2023-04-24T14:33:13;2.20;;;1.50;;
26908;SDS011;14477;51.038;4.588;2023-04-24T14:35:39;1.90;;;1.27;;
26908;SDS011;14477;51.038;4.588;2023-04-24T14:38:07;1.92;;;1.40;;
26908;SDS011;14477;51.038;4.588;2023-04-24T14:40:33;1.67;;;1.20;;
26908;SDS011;14477;51.038;4.588;2023-04-24T14:42:59;1.75;;;1.20;;
26908;SDS011;14477;51.038;4.588;2023-04-24T14:45:25;1.30;;;1.10;;
26908;SDS011;14477;51.038;4.588;2023-04-24T14:47:51;2.77;;;1.30;;
26908;SDS011;14477;51.038;4.588;2023-04-24T14:50:17;2.13;;;1.30;;
26908;SDS011;14477;51.038;4.588;2023-04-24T14:52:43;2.10;;;1.20;;
26908;SDS011;14477;51.038;4.588;2023-04-24T14:55:09;1.47;;;1.07;;
26908;SDS011;14477;51.038;4.588;2023-04-24T14:57:35;2.28;;;1.15;;
26908;SDS011;14477;51.038;4.588;2023-04-24T15:00:02;1.80;;;1.13;;
26908;SDS011;14477;51.038;4.588;2023-04-24T15:02:31;1.30;;;1.10;;
26908;SDS011;14477;51.038;4.588;2023-04-24T15:04:57;1.90;;;1.10;;